Time,TemperatureF,DewpointF,PressureIn,WindDirection,WindDirectionDegrees,WindSpeedMPH,WindSpeedGustMPH,Humidity,HourlyPrecipIn,Conditions,Clouds,dailyrainin,SoftwareType,DateUTC
2013-06-25 11:00:00,74.9,73.4,29.92,SSW,192,1.0,4.0,95,0.00,,,0.51,Wunderground v.1.15,2013-06-25 16:00:00,
2013-06-25 11:05:00,75.1,72.3,29.91,SE,126,1.0,4.0,91,0.00,,,0.51,Wunderground v.1.15,2013-06-25 16:05:00,
2013-06-25 11:10:00,75.3,72.5,29.91,SE,142,1.0,4.0,91,0.00,,,0.51,Wunderground v.1.15,2013-06-25 16:10:00,
2013-06-25 11:15:00,75.2,71.7,29.90,SSE,161,2.0,6.0,89,0.00,,,0.51,Wunderground v.1.15,2013-06-25 16:15:00,
2013-06-25 11:20:00,75.3,71.5,29.90,SE,145,3.0,3.0,88,0.00,,,0.51,Wunderground v.1.15,2013-06-25 16:20:00,
2013-06-25 11:25:00,75.3,71.5,29.90,SSE,155,2.0,3.0,88,0.00,,,0.51,Wunderground v.1.15,2013-06-25 16:25:00,
2013-06-25 11:30:00,75.6,71.5,29.90,South,173,2.0,5.0,87,0.00,,,0.51,Wunderground v.1.15,2013-06-25 16:30:00,
2013-06-25 11:35:00,75.9,71.8,29.91,ESE,109,1.0,5.0,87,0.00,,,0.51,Wunderground v.1.15,2013-06-25 16:35:00,
2013-06-25 11:40:00,76.2,72.4,29.91,SE,142,1.0,1.0,88,0.00,,,0.51,Wunderground v.1.15,2013-06-25 16:40:00,
2013-06-25 11:50:00,77.1,73.3,29.90,SE,136,1.0,1.0,88,0.00,,,0.51,Wunderground v.1.15,2013-06-25 16:50:00,
2013-06-25 11:55:00,77.7,73.5,29.90,ESE,116,1.0,1.0,87,0.00,,,0.51,Wunderground v.1.15,2013-06-25 16:55:00,
2013-06-25 12:00:00,78.0,73.8,29.89,SE,140,0.0,0.0,87,0.00,,,0.51,Wunderground v.1.15,2013-06-25 17:00:00,
2013-06-25 12:05:00,77.9,73.4,29.89,SSE,150,0.0,0.0,86,0.00,,,0.51,Wunderground v.1.15,2013-06-25 17:05:00,
2013-06-25 12:15:00,77.9,73.7,29.89,ESE,111,1.0,1.0,87,0.00,,,0.51,Wunderground v.1.15,2013-06-25 17:15:00,
2013-06-25 12:20:00,78.0,73.8,29.90,ESE,121,1.0,1.0,87,0.00,,,0.51,Wunderground v.1.15,2013-06-25 17:20:00,
2013-06-25 12:25:00,78.3,74.1,29.91,South,181,1.0,1.0,87,0.00,,,0.51,Wunderground v.1.15,2013-06-25 17:25:00,
2013-06-25 12:35:00,78.7,74.5,29.90,ESE,117,1.0,1.0,87,0.00,,,0.51,Wunderground v.1.15,2013-06-25 17:35:00,
2013-06-25 12:40:00,78.9,74.7,29.90,South,176,1.0,1.0,87,0.00,,,0.51,Wunderground v.1.15,2013-06-25 17:40:00,
2013-06-25 12:50:00,79.1,74.5,29.89,SSE,164,1.0,1.0,86,0.00,,,0.51,Wunderground v.1.15,2013-06-25 17:50:00,
2013-06-25 12:55:00,79.2,75.0,29.89,SSE,157,0.0,1.0,87,0.00,,,0.51,Wunderground v.1.15,2013-06-25 17:55:00,
2013-06-25 13:00:00,79.3,74.7,29.89,West,272,1.0,1.0,86,0.00,,,0.51,Wunderground v.1.15,2013-06-25 18:00:00,
2013-06-25 13:05:00,79.4,75.2,29.89,SE,128,1.0,2.0,87,0.00,,,0.51,Wunderground v.1.15,2013-06-25 18:05:00,
2013-06-25 13:15:00,79.6,75.4,29.88,ESE,123,0.0,0.0,87,0.00,,,0.51,Wunderground v.1.15,2013-06-25 18:15:00,
2013-06-25 13:20:00,79.7,75.5,29.88,ESE,109,0.0,0.0,87,0.00,,,0.51,Wunderground v.1.15,2013-06-25 18:20:00,
2013-06-25 13:25:00,79.9,75.7,29.88,WNW,287,0.0,0.0,87,0.00,,,0.51,Wunderground v.1.15,2013-06-25 18:25:00,
2013-06-25 13:30:00,80.0,75.4,29.88,ESE,122,0.0,0.0,86,0.00,,,0.51,Wunderground v.1.15,2013-06-25 18:30:00,
2013-06-25 13:35:00,80.0,75.1,29.87,ESE,115,0.0,0.0,85,0.00,,,0.51,Wunderground v.1.15,2013-06-25 18:35:00,
2013-06-25 13:45:00,80.1,75.2,29.87,ENE,63,0.0,0.0,85,0.00,,,0.51,Wunderground v.1.15,2013-06-25 18:45:00,
2013-06-25 13:50:00,80.1,75.5,29.86,ENE,63,0.0,0.0,86,0.00,,,0.51,Wunderground v.1.15,2013-06-25 18:50:00,
2013-06-25 13:55:00,80.1,75.5,29.87,ENE,63,0.0,0.0,86,0.00,,,0.51,Wunderground v.1.15,2013-06-25 18:55:00,
2013-06-25 14:00:00,80.1,75.9,29.87,ENE,63,0.0,0.0,87,0.00,,,0.51,Wunderground v.1.15,2013-06-25 19:00:00,
2013-06-25 14:05:00,80.0,76.1,29.87,ENE,63,0.0,0.0,88,0.00,,,0.51,Wunderground v.1.15,2013-06-25 19:05:00,
2013-06-25 14:15:00,79.8,75.9,29.87,ENE,63,0.0,0.0,88,0.00,,,0.51,Wunderground v.1.15,2013-06-25 19:15:00,
2013-06-25 14:20:00,79.8,76.3,29.87,ENE,63,0.0,0.0,89,0.00,,,0.51,Wunderground v.1.15,2013-06-25 19:20:00,
2013-06-25 14:30:00,80.3,77.1,29.87,ENE,63,0.0,0.0,90,0.00,,,0.51,Wunderground v.1.15,2013-06-25 19:30:00,
2013-06-25 14:35:00,80.2,76.7,29.87,ENE,63,0.0,0.0,89,0.00,,,0.51,Wunderground v.1.15,2013-06-25 19:35:00,
2013-06-25 14:40:00,80.2,76.7,29.87,ENE,63,0.0,0.0,89,0.00,,,0.51,Wunderground v.1.15,2013-06-25 19:40:00,
2013-06-25 14:50:00,80.5,77.0,29.87,ENE,63,0.0,0.0,89,0.00,,,0.51,Wunderground v.1.15,2013-06-25 19:50:00,
2013-06-25 14:55:00,80.7,76.8,29.87,ENE,64,0.0,0.0,88,0.00,,,0.51,Wunderground v.1.15,2013-06-25 19:55:00,
2013-06-25 15:00:00,80.9,76.3,29.87,ENE,65,0.0,0.0,86,0.00,,,0.51,Wunderground v.1.15,2013-06-25 20:00:00,
2013-06-25 15:05:00,81.1,76.5,29.87,ENE,67,0.0,0.0,86,0.00,,,0.51,Wunderground v.1.15,2013-06-25 20:05:00,
2013-06-25 15:15:00,80.9,76.3,29.86,ESE,103,0.0,0.0,86,0.00,,,0.51,Wunderground v.1.15,2013-06-25 20:15:00,
2013-06-25 15:20:00,80.8,76.2,29.86,ESE,105,0.0,0.0,86,0.00,,,0.51,Wunderground v.1.15,2013-06-25 20:20:00,
2013-06-25 15:25:00,80.6,76.0,29.86,ESE,105,0.0,0.0,86,0.00,,,0.51,Wunderground v.1.15,2013-06-25 20:25:00,
2013-06-25 15:30:00,80.5,75.9,29.86,ESE,106,0.0,0.0,86,0.00,,,0.51,Wunderground v.1.15,2013-06-25 20:30:00,
2013-06-25 15:40:00,81.2,76.6,29.87,ESE,105,0.0,4.0,86,0.00,,,0.51,Wunderground v.1.15,2013-06-25 20:40:00,
2013-06-25 15:45:00,81.5,76.6,29.86,ESE,103,0.0,4.0,85,0.00,,,0.51,Wunderground v.1.15,2013-06-25 20:45:00,
2013-06-25 15:50:00,82.0,76.7,29.86,WSW,242,0.0,6.0,84,0.00,,,0.51,Wunderground v.1.15,2013-06-25 20:50:00,
2013-06-25 16:00:00,82.5,76.4,29.86,North,360,1.0,1.0,82,0.00,,,0.51,Wunderground v.1.15,2013-06-25 21:00:00,
2013-06-25 16:05:00,82.6,76.2,29.86,NW,313,1.0,1.0,81,0.00,,,0.51,Wunderground v.1.15,2013-06-25 21:05:00,
2013-06-25 16:15:00,82.4,76.0,29.86,SSE,155,1.0,1.0,81,0.00,,,0.51,Wunderground v.1.15,2013-06-25 21:15:00,
2013-06-25 16:20:00,82.7,76.3,29.85,East,98,1.0,1.0,81,0.00,,,0.51,Wunderground v.1.15,2013-06-25 21:20:00,
2013-06-25 16:25:00,83.0,76.2,29.85,NNW,331,1.0,1.0,80,0.00,,,0.51,Wunderground v.1.15,2013-06-25 21:25:00,
2013-06-25 16:35:00,83.1,75.1,29.86,WNW,296,1.0,1.0,77,0.00,,,0.51,Wunderground v.1.15,2013-06-25 21:35:00,
2013-06-25 16:40:00,83.3,74.9,29.85,WSW,258,1.0,1.0,76,0.00,,,0.51,Wunderground v.1.15,2013-06-25 21:40:00,
2013-06-25 16:50:00,82.8,74.5,29.85,SSW,192,0.0,0.0,76,0.00,,,0.51,Wunderground v.1.15,2013-06-25 21:50:00,
2013-06-25 16:55:00,82.4,74.8,29.85,North,355,0.0,0.0,78,0.00,,,0.51,Wunderground v.1.15,2013-06-25 21:55:00,
2013-06-25 17:05:00,82.0,74.8,29.85,NNW,346,0.0,0.0,79,0.00,,,0.51,Wunderground v.1.15,2013-06-25 22:05:00,
2013-06-25 17:15:00,81.9,74.4,29.85,WNW,288,0.0,0.0,78,0.00,,,0.51,Wunderground v.1.15,2013-06-25 22:15:00,
2013-06-25 17:25:00,82.1,74.6,29.85,West,267,0.0,0.0,78,0.00,,,0.51,Wunderground v.1.15,2013-06-25 22:25:00,
2013-06-25 17:30:00,82.1,74.6,29.85,West,267,0.0,0.0,78,0.00,,,0.51,Wunderground v.1.15,2013-06-25 22:30:00,
2013-06-25 17:40:00,82.2,75.0,29.84,West,281,0.0,3.0,79,0.00,,,0.51,Wunderground v.1.15,2013-06-25 22:40:00,
2013-06-25 17:45:00,82.2,75.0,29.84,West,281,0.0,3.0,79,0.00,,,0.51,Wunderground v.1.15,2013-06-25 22:45:00,
2013-06-25 17:50:00,82.1,74.9,29.84,West,281,0.0,0.0,79,0.00,,,0.51,Wunderground v.1.15,2013-06-25 22:50:00,
2013-06-25 17:55:00,81.9,74.7,29.84,West,281,0.0,0.0,79,0.00,,,0.51,Wunderground v.1.15,2013-06-25 22:55:00,
2013-06-25 18:00:00,81.8,74.6,29.84,West,281,0.0,0.0,79,0.00,,,0.51,Wunderground v.1.15,2013-06-25 23:00:00,
2013-06-25 18:05:00,81.9,75.1,29.84,West,281,0.0,0.0,80,0.00,,,0.51,Wunderground v.1.15,2013-06-25 23:05:00,
2013-06-25 18:15:00,81.8,75.0,29.84,West,281,0.0,0.0,80,0.00,,,0.51,Wunderground v.1.15,2013-06-25 23:15:00,
2013-06-25 18:20:00,81.7,75.3,29.84,West,281,0.0,0.0,81,0.00,,,0.51,Wunderground v.1.15,2013-06-25 23:20:00,
2013-06-25 18:25:00,81.5,75.1,29.84,West,281,0.0,0.0,81,0.00,,,0.51,Wunderground v.1.15,2013-06-25 23:25:00,
2013-06-25 18:30:00,81.4,75.7,29.84,West,281,0.0,0.0,83,0.00,,,0.51,Wunderground v.1.15,2013-06-25 23:30:00,
2013-06-25 18:40:00,81.3,75.6,29.84,West,281,0.0,0.0,83,0.00,,,0.51,Wunderground v.1.15,2013-06-25 23:40:00,
2013-06-25 18:45:00,81.3,75.6,29.85,West,281,0.0,0.0,83,0.00,,,0.51,Wunderground v.1.15,2013-06-25 23:45:00,
2013-06-25 18:50:00,81.2,75.5,29.84,West,281,0.0,0.0,83,0.00,,,0.51,Wunderground v.1.15,2013-06-25 23:50:00,
2013-06-25 18:55:00,81.2,75.5,29.84,West,281,0.0,0.0,83,0.00,,,0.51,Wunderground v.1.15,2013-06-25 23:55:00,
2013-06-25 19:00:00,81.4,76.1,29.84,West,281,0.0,0.0,84,0.00,,,0.51,Wunderground v.1.15,2013-06-26 00:00:00,
2013-06-25 19:05:00,81.1,76.2,29.84,West,281,0.0,0.0,85,0.00,,,0.51,Wunderground v.1.15,2013-06-26 00:05:00,
2013-06-25 19:15:00,80.6,76.0,29.83,West,281,0.0,0.0,86,0.00,,,0.51,Wunderground v.1.15,2013-06-26 00:15:00,
2013-06-25 19:20:00,79.7,75.1,29.83,West,281,0.0,0.0,86,0.00,,,0.51,Wunderground v.1.15,2013-06-26 00:20:00,
2013-06-25 19:25:00,79.2,75.3,29.83,West,281,0.0,0.0,88,0.00,,,0.51,Wunderground v.1.15,2013-06-26 00:25:00,
2013-06-25 19:30:00,78.9,75.4,29.83,West,281,0.0,0.0,89,0.00,,,0.51,Wunderground v.1.15,2013-06-26 00:30:00,
2013-06-25 19:40:00,78.7,75.5,29.83,West,281,0.0,0.0,90,0.00,,,0.51,Wunderground v.1.15,2013-06-26 00:40:00,
2013-06-25 19:45:00,78.6,75.4,29.83,West,281,0.0,0.0,90,0.00,,,0.51,Wunderground v.1.15,2013-06-26 00:45:00,
2013-06-25 19:50:00,78.4,75.2,29.83,West,281,0.0,0.0,90,0.00,,,0.51,Wunderground v.1.15,2013-06-26 00:50:00,
2013-06-25 20:00:00,78.3,75.5,29.83,West,281,0.0,0.0,91,0.00,,,0.51,Wunderground v.1.15,2013-06-26 01:00:00,
2013-06-25 20:05:00,78.0,75.2,29.84,West,281,0.0,0.0,91,0.00,,,0.51,Wunderground v.1.15,2013-06-26 01:05:00,
2013-06-25 20:15:00,77.6,74.8,29.84,West,281,0.0,0.0,91,0.00,,,0.51,Wunderground v.1.15,2013-06-26 01:15:00,
2013-06-25 20:25:00,76.9,74.1,29.84,West,281,0.0,0.0,91,0.00,,,0.51,Wunderground v.1.15,2013-06-26 01:25:00,
2013-06-25 20:30:00,76.6,74.1,29.84,West,281,0.0,0.0,92,0.00,,,0.51,Wunderground v.1.15,2013-06-26 01:30:00,
2013-06-25 20:40:00,76.0,73.5,29.84,West,281,0.0,0.0,92,0.00,,,0.51,Wunderground v.1.15,2013-06-26 01:40:00,
2013-06-25 20:50:00,75.5,73.3,29.84,West,281,0.0,0.0,93,0.00,,,0.51,Wunderground v.1.15,2013-06-26 01:50:00,
2013-06-25 20:55:00,75.2,73.0,29.83,West,281,0.0,0.0,93,0.00,,,0.51,Wunderground v.1.15,2013-06-26 01:55:00,
2013-06-25 21:00:00,75.1,73.3,29.83,West,281,0.0,0.0,94,0.00,,,0.51,Wunderground v.1.15,2013-06-26 02:00:00,
2013-06-25 21:05:00,75.0,73.2,29.83,West,281,0.0,0.0,94,0.00,,,0.51,Wunderground v.1.15,2013-06-26 02:05:00,
2013-06-25 21:15:00,74.7,72.9,29.84,West,281,0.0,0.0,94,0.00,,,0.51,Wunderground v.1.15,2013-06-26 02:15:00,
2013-06-25 21:20:00,74.7,72.9,29.84,West,281,0.0,0.0,94,0.00,,,0.51,Wunderground v.1.15,2013-06-26 02:20:00,
2013-06-25 21:25:00,74.6,72.8,29.83,West,281,0.0,0.0,94,0.00,,,0.51,Wunderground v.1.15,2013-06-26 02:25:00,
2013-06-25 21:35:00,74.4,72.9,29.83,West,281,0.0,0.0,95,0.00,,,0.51,Wunderground v.1.15,2013-06-26 02:35:00,
2013-06-25 21:45:00,74.1,72.6,29.84,West,281,0.0,0.0,95,0.00,,,0.51,Wunderground v.1.15,2013-06-26 02:45:00,
2013-06-25 21:50:00,74.2,72.7,29.84,West,281,0.0,0.0,95,0.00,,,0.51,Wunderground v.1.15,2013-06-26 02:50:00,
2013-06-25 21:55:00,74.6,73.1,29.84,West,281,0.0,0.0,95,0.00,,,0.51,Wunderground v.1.15,2013-06-26 02:55:00,
2013-06-25 22:00:00,74.7,73.2,29.84,West,281,0.0,0.0,95,0.00,,,0.51,Wunderground v.1.15,2013-06-26 03:00:00,
2013-06-25 22:05:00,74.7,73.2,29.84,West,281,0.0,0.0,95,0.00,,,0.51,Wunderground v.1.15,2013-06-26 03:05:00,
2013-06-25 22:15:00,74.8,73.3,29.84,West,281,0.0,0.0,95,0.00,,,0.51,Wunderground v.1.15,2013-06-26 03:15:00,
2013-06-25 22:20:00,74.7,73.2,29.84,West,281,0.0,0.0,95,0.00,,,0.51,Wunderground v.1.15,2013-06-26 03:20:00,
2013-06-25 22:25:00,74.7,73.2,29.84,West,281,0.0,0.0,95,0.00,,,0.51,Wunderground v.1.15,2013-06-26 03:25:00,
2013-06-25 22:35:00,74.6,73.1,29.84,West,281,0.0,0.0,95,0.00,,,0.51,Wunderground v.1.15,2013-06-26 03:35:00,
2013-06-25 22:40:00,74.3,72.8,29.84,West,281,0.0,0.0,95,0.00,,,0.51,Wunderground v.1.15,2013-06-26 03:40:00,
2013-06-25 22:45:00,74.2,72.7,29.84,West,281,0.0,0.0,95,0.00,,,0.51,Wunderground v.1.15,2013-06-26 03:45:00,
2013-06-25 22:50:00,74.0,72.5,29.85,West,281,0.0,0.0,95,0.00,,,0.51,Wunderground v.1.15,2013-06-26 03:50:00,
2013-06-25 22:55:00,73.9,72.4,29.84,West,281,0.0,0.0,95,0.00,,,0.51,Wunderground v.1.15,2013-06-26 03:55:00,
2013-06-25 23:00:00,73.8,72.3,29.85,West,281,0.0,0.0,95,0.00,,,0.51,Wunderground v.1.15,2013-06-26 04:00:00,
2013-06-25 23:05:00,73.8,72.3,29.84,West,281,0.0,0.0,95,0.00,,,0.51,Wunderground v.1.15,2013-06-26 04:05:00,
2013-06-25 23:10:00,74.0,72.5,29.84,West,281,0.0,0.0,95,0.00,,,0.51,Wunderground v.1.15,2013-06-26 04:10:00,
2013-06-25 23:15:00,74.0,72.5,29.84,West,281,0.0,0.0,95,0.00,,,0.51,Wunderground v.1.15,2013-06-26 04:15:00,
2013-06-25 23:20:00,73.8,72.3,29.83,West,281,0.0,0.0,95,0.00,,,0.51,Wunderground v.1.15,2013-06-26 04:20:00,
2013-06-25 23:25:00,73.7,72.5,29.83,West,281,0.0,0.0,96,0.00,,,0.51,Wunderground v.1.15,2013-06-26 04:25:00,
2013-06-25 23:30:00,73.9,72.7,29.83,West,281,0.0,0.0,96,0.00,,,0.51,Wunderground v.1.15,2013-06-26 04:30:00,
2013-06-25 23:40:00,74.0,72.8,29.83,West,281,0.0,0.0,96,0.00,,,0.51,Wunderground v.1.15,2013-06-26 04:40:00,
2013-06-25 23:45:00,73.8,72.6,29.83,West,281,0.0,0.0,96,0.00,,,0.51,Wunderground v.1.15,2013-06-26 04:45:00,
2013-06-25 23:50:00,73.7,72.5,29.83,West,281,0.0,0.0,96,0.00,,,0.51,Wunderground v.1.15,2013-06-26 04:50:00,
2013-06-25 23:55:00,73.6,72.4,29.83,West,281,0.0,0.0,96,0.00,,,0.51,Wunderground v.1.15,2013-06-26 04:55:00,